Time;durP1;ratioP1;P1;durP2;ratioP2;P2;SDS_P1;SDS_P2;PMS_P1;PMS_P2;Temp;Humidity;BMP_temperature;BMP_pressure;BME280_temperature;BME280_humidity;BME280_pressure;Samples;Min_cycle;Max_cycle;Signal;HPM_P1;HPM_P2
2021/08/19 00:00:15;;;;;;;3.25;1.65;;;;;;;25.39;nan;94942.09;4968989;28;20038;-71
2021/08/19 00:02:41;;;;;;;5.05;1.77;;;;;;;25.39;nan;94947.56;4972013;28;20050;-71
2021/08/19 00:05:06;;;;;;;4.65;1.50;;;;;;;25.36;nan;94937.66;4971233;28;20023;-70
2021/08/19 00:07:32;;;;;;;2.08;1.20;;;;;;;25.34;nan;94942.94;4972531;28;20030;-71
2021/08/19 00:09:57;;;;;;;2.65;1.67;;;;;;;25.31;nan;94946.72;4971728;28;20027;-70
2021/08/19 00:12:24;;;;;;;3.78;1.80;;;;;;;25.28;nan;94942.28;4972072;28;20026;-71
2021/08/19 00:14:49;;;;;;;3.33;1.40;;;;;;;25.25;nan;94948.81;4971322;28;20027;-71
2021/08/19 00:17:15;;;;;;;2.50;1.23;;;;;;;25.28;nan;94947.75;4971676;28;20041;-70
2021/08/19 00:19:40;;;;;;;2.80;1.42;;;;;;;25.28;nan;94942.28;4966953;28;20027;-70
2021/08/19 00:22:06;;;;;;;3.08;1.20;;;;;;;25.30;nan;94939.75;4968092;28;20077;-70
2021/08/19 00:24:31;;;;;;;3.85;1.67;;;;;;;25.33;nan;94941.44;4966843;28;20027;-71
2021/08/19 00:26:57;;;;;;;2.97;1.45;;;;;;;25.32;nan;94948.19;4951078;28;20062;-70
2021/08/19 00:29:22;;;;;;;3.47;1.30;;;;;;;25.26;nan;94936.63;4950554;28;20082;-70
2021/08/19 00:31:49;;;;;;;3.13;1.40;;;;;;;25.26;nan;94939.34;4949190;29;20026;-70
2021/08/19 00:34:15;;;;;;;2.83;1.55;;;;;;;25.29;nan;94938.31;4948562;29;20023;-70
2021/08/19 00:36:40;;;;;;;2.72;1.42;;;;;;;25.28;nan;94942.28;4948800;29;20489;-70
2021/08/19 00:39:06;;;;;;;2.70;1.30;;;;;;;25.29;nan;94937.56;4948770;28;20031;-70
2021/08/19 00:41:31;;;;;;;3.95;1.30;;;;;;;25.26;nan;94949.53;4948531;29;20015;-70
2021/08/19 00:43:58;;;;;;;2.92;1.30;;;;;;;25.27;nan;94946.28;4948914;29;20705;-71
2021/08/19 00:46:31;;;;;;;3.60;1.30;;;;;;;25.26;nan;94950.28;4947616;29;20027;-70
2021/08/19 00:49:02;;;;;;;2.08;1.17;;;;;;;25.25;nan;94953.53;4949473;29;20024;-71
2021/08/19 00:51:34;;;;;;;2.95;1.20;;;;;;;25.25;nan;94951.53;4953320;28;20031;-69
2021/08/19 00:54:00;;;;;;;1.88;1.02;;;;;;;25.24;nan;94946.59;4967917;28;20028;-70
2021/08/19 00:56:26;;;;;;;3.30;1.35;;;;;;;25.23;nan;94951.34;4967577;28;20027;-71
2021/08/19 00:58:52;;;;;;;3.67;1.50;;;;;;;25.16;nan;94946.47;4947413;28;20074;-70
2021/08/19 01:01:17;;;;;;;3.00;1.50;;;;;;;25.15;nan;94939.53;4969022;28;20062;-71
2021/08/19 01:03:43;;;;;;;2.97;1.42;;;;;;;25.17;nan;94941.72;4967304;28;20159;-70
2021/08/19 01:06:08;;;;;;;2.60;1.20;;;;;;;25.16;nan;94946.47;4961268;28;20560;-70
2021/08/19 01:08:35;;;;;;;2.05;1.33;;;;;;;25.14;nan;94943.53;4947772;29;20037;-70
2021/08/19 01:11:03;;;;;;;3.03;1.33;;;;;;;25.17;nan;94947.97;4948140;28;20215;-70
2021/08/19 01:13:28;;;;;;;3.05;1.45;;;;;;;25.16;nan;94941.00;4946256;28;20045;-70
2021/08/19 01:15:53;;;;;;;4.35;1.20;;;;;;;25.13;nan;94942.06;4967758;28;20027;-70
2021/08/19 01:18:19;;;;;;;3.90;1.40;;;;;;;25.15;nan;94939.53;4946998;28;20086;-70
2021/08/19 01:20:44;;;;;;;6.82;2.67;;;;;;;25.17;nan;94931.56;4967545;28;20425;-71
2021/08/19 01:23:10;;;;;;;3.00;1.02;;;;;;;25.12;nan;94940.56;4967351;28;20532;-71
2021/08/19 01:25:35;;;;;;;2.63;1.40;;;;;;;25.11;nan;94944.56;4963693;28;20106;-70
2021/08/19 01:28:00;;;;;;;3.05;1.27;;;;;;;25.07;nan;94933.22;4962930;28;20855;-70
2021/08/19 01:30:26;;;;;;;3.70;1.42;;;;;;;25.02;nan;94928.59;4966598;28;20022;-71
2021/08/19 01:32:52;;;;;;;1.90;1.15;;;;;;;25.01;nan;94935.28;4965834;28;20023;-70
2021/08/19 01:35:21;;;;;;;2.72;1.10;;;;;;;25.04;nan;94945.19;4946822;28;20015;-72
2021/08/19 01:37:47;;;;;;;3.25;1.30;;;;;;;25.03;nan;94938.22;4967344;28;20018;-71
2021/08/19 01:40:14;;;;;;;3.17;1.45;;;;;;;25.03;nan;94938.22;4965885;28;20152;-70
2021/08/19 01:42:41;;;;;;;2.30;1.10;;;;;;;24.99;nan;94937.81;4965282;28;20249;-71
2021/08/19 01:45:06;;;;;;;1.50;0.90;;;;;;;24.95;nan;94931.88;4966977;28;20027;-71
2021/08/19 01:47:32;;;;;;;4.35;1.50;;;;;;;24.98;nan;94930.84;4965970;28;20027;-71
2021/08/19 01:49:57;;;;;;;3.15;1.40;;;;;;;24.97;nan;94934.81;4967518;28;20026;-70
2021/08/19 01:52:23;;;;;;;3.58;1.15;;;;;;;24.95;nan;94931.88;4953875;28;20026;-70
2021/08/19 01:54:49;;;;;;;3.22;1.20;;;;;;;24.95;nan;94923.69;4948203;29;20582;-71
2021/08/19 01:57:14;;;;;;;2.33;1.17;;;;;;;24.93;nan;94923.47;4946973;28;20034;-71
2021/08/19 01:59:40;;;;;;;2.72;1.27;;;;;;;24.96;nan;94927.91;4930692;29;20063;-71
2021/08/19 02:02:05;;;;;;;4.22;1.50;;;;;;;24.92;nan;94922.00;4955093;28;20085;-71
2021/08/19 02:04:31;;;;;;;2.75;1.50;;;;;;;24.93;nan;94928.94;4967513;28;20051;-70
2021/08/19 02:06:56;;;;;;;4.43;1.45;;;;;;;24.93;nan;94928.94;4942398;29;20032;-70
2021/08/19 02:09:22;;;;;;;2.55;1.30;;;;;;;24.94;nan;94930.41;4948141;29;20059;-70
2021/08/19 02:11:48;;;;;;;2.83;1.30;;;;;;;24.92;nan;94932.19;4951060;28;20405;-71
2021/08/19 02:14:13;;;;;;;4.13;1.40;;;;;;;24.91;nan;94923.25;4950028;28;20493;-70
2021/08/19 02:16:39;;;;;;;3.38;1.20;;;;;;;24.91;nan;94920.50;4965900;28;20026;-70
2021/08/19 02:19:04;;;;;;;4.55;1.17;;;;;;;24.90;nan;94919.06;4966047;28;20023;-71
2021/08/19 02:21:30;;;;;;;2.97;1.50;;;;;;;24.87;nan;94925.56;4966452;28;20022;-70
2021/08/19 02:23:55;;;;;;;3.10;1.38;;;;;;;24.87;nan;94931.03;4965395;28;20027;-70
2021/08/19 02:26:21;;;;;;;5.05;1.50;;;;;;;24.85;nan;94928.06;4947944;29;20020;-71
2021/08/19 02:28:46;;;;;;;2.45;1.27;;;;;;;24.87;nan;94925.56;4947407;29;20031;-71
2021/08/19 02:31:12;;;;;;;3.88;1.17;;;;;;;24.88;nan;94916.09;4946448;28;20027;-71
2021/08/19 02:33:37;;;;;;;2.10;1.20;;;;;;;24.83;nan;94927.84;4947938;29;20038;-70
2021/08/19 02:36:03;;;;;;;3.38;1.30;;;;;;;24.80;nan;94935.59;4946105;28;20440;-71
2021/08/19 02:38:28;;;;;;;2.50;1.10;;;;;;;24.82;nan;94922.19;4962536;28;20027;-71
2021/08/19 02:40:53;;;;;;;2.92;1.33;;;;;;;24.80;nan;94935.59;4966546;28;20031;-71
2021/08/19 02:43:19;;;;;;;3.03;1.42;;;;;;;24.65;nan;94930.63;4963332;28;20065;-72
2021/08/19 02:45:44;;;;;;;4.25;1.60;;;;;;;24.55;nan;94931.53;4965522;28;20027;-71
2021/08/19 02:48:10;;;;;;;3.03;1.25;;;;;;;24.42;nan;94934.94;4965408;28;20046;-71
2021/08/19 02:50:35;;;;;;;1.95;1.20;;;;;;;24.39;nan;94935.97;4965213;28;20023;-72
2021/08/19 02:53:01;;;;;;;2.50;1.20;;;;;;;24.29;nan;94931.38;4946795;28;20692;-72
2021/08/19 02:55:26;;;;;;;3.55;1.58;;;;;;;24.20;nan;94933.72;4947660;28;20777;-71
2021/08/19 02:57:51;;;;;;;3.80;1.50;;;;;;;24.14;nan;94947.47;4943569;28;20031;-71
2021/08/19 03:00:17;;;;;;;2.50;1.33;;;;;;;24.11;nan;94937.56;4966656;28;20042;-71
2021/08/19 03:02:42;;;;;;;3.35;1.50;;;;;;;24.10;nan;94947.00;4962221;28;20055;-72
2021/08/19 03:05:08;;;;;;;2.95;1.33;;;;;;;24.06;nan;94945.81;4955469;28;20023;-71
2021/08/19 03:07:34;;;;;;;2.47;1.63;;;;;;;24.02;nan;94946.13;4962624;28;20386;-72
2021/08/19 03:09:59;;;;;;;4.47;1.25;;;;;;;23.95;nan;94949.41;4965218;28;20031;-71
2021/08/19 03:12:25;;;;;;;3.40;1.55;;;;;;;23.90;nan;94961.16;4965484;28;20027;-71
2021/08/19 03:14:50;;;;;;;4.90;1.90;;;;;;;23.90;nan;94966.59;4966034;28;20038;-71
2021/08/19 03:17:15;;;;;;;6.63;2.13;;;;;;;23.84;nan;94962.47;4965981;28;20038;-71
2021/08/19 03:19:41;;;;;;;4.05;1.15;;;;;;;23.76;nan;94966.28;4948468;28;20033;-70
2021/08/19 03:22:08;;;;;;;3.17;1.45;;;;;;;23.79;nan;94976.88;4966031;28;20033;-71
2021/08/19 03:24:33;;;;;;;6.65;1.42;;;;;;;23.69;nan;94972.28;4932989;29;20035;-71
2021/08/19 03:26:59;;;;;;;3.33;1.67;;;;;;;23.77;nan;94967.75;4946913;29;20446;-71
2021/08/19 03:29:25;;;;;;;5.10;1.35;;;;;;;23.79;nan;94970.69;4945924;28;20074;-72
2021/08/19 03:31:50;;;;;;;3.15;1.70;;;;;;;23.72;nan;94965.81;4947117;29;20035;-72
2021/08/19 03:34:16;;;;;;;3.00;1.50;;;;;;;23.73;nan;94972.75;4946154;29;20035;-71
2021/08/19 03:36:41;;;;;;;3.55;1.30;;;;;;;23.77;nan;94967.75;4962181;28;20056;-71
2021/08/19 03:39:07;;;;;;;2.70;1.30;;;;;;;23.69;nan;94983.19;4965737;28;20019;-71
2021/08/19 03:41:33;;;;;;;4.32;2.17;;;;;;;23.63;nan;94980.50;4959459;28;20027;-71
2021/08/19 03:43:58;;;;;;;3.63;1.45;;;;;;;23.58;nan;94977.84;4966354;28;20331;-71
2021/08/19 03:46:24;;;;;;;2.17;1.30;;;;;;;23.63;nan;94979.75;4965221;28;20564;-72
2021/08/19 03:48:50;;;;;;;2.55;1.20;;;;;;;23.61;nan;94971.38;4962251;28;20493;-72
2021/08/19 03:51:15;;;;;;;3.95;1.50;;;;;;;23.52;nan;94974.44;4961564;28;20122;-71
2021/08/19 03:53:40;;;;;;;2.45;1.50;;;;;;;23.49;nan;94975.44;4962831;28;20026;-72
2021/08/19 03:56:06;;;;;;;3.17;1.50;;;;;;;23.46;nan;94971.00;4949763;28;20022;-71
2021/08/19 03:58:31;;;;;;;3.17;1.50;;;;;;;23.42;nan;94970.56;4965909;28;20019;-71
2021/08/19 04:00:57;;;;;;;4.15;1.65;;;;;;;23.39;nan;94971.56;4963717;28;20552;-72
2021/08/19 04:03:23;;;;;;;4.40;1.52;;;;;;;23.31;nan;94959.75;4949187;29;20055;-72
2021/08/19 04:05:48;;;;;;;5.63;1.67;;;;;;;23.32;nan;94972.16;4963515;28;20035;-72
2021/08/19 04:08:14;;;;;;;4.68;1.98;;;;;;;23.33;nan;94973.59;4950423;29;20030;-72
2021/08/19 04:10:39;;;;;;;3.67;1.85;;;;;;;23.29;nan;94978.63;4949014;29;20091;-72
2021/08/19 04:13:05;;;;;;;4.72;1.85;;;;;;;23.26;nan;94974.19;4950322;28;20023;-72
2021/08/19 04:15:30;;;;;;;4.63;1.80;;;;;;;23.24;nan;94984.84;4949719;29;20078;-72
2021/08/19 04:17:56;;;;;;;6.45;1.60;;;;;;;23.22;nan;94983.88;4949216;29;20490;-72
2021/08/19 04:20:21;;;;;;;4.05;1.77;;;;;;;23.22;nan;94990.06;4949680;29;20550;-71
2021/08/19 04:22:47;;;;;;;7.07;1.65;;;;;;;23.21;nan;94988.56;4948512;29;20030;-71
2021/08/19 04:25:12;;;;;;;3.53;1.70;;;;;;;23.20;nan;94987.13;4947988;29;20772;-71
2021/08/19 04:27:38;;;;;;;3.92;1.50;;;;;;;23.22;nan;94995.50;4958030;28;20756;-71
2021/08/19 04:30:05;;;;;;;3.50;1.80;;;;;;;23.21;nan;94999.47;4949161;29;20469;-71
2021/08/19 04:32:30;;;;;;;4.25;1.40;;;;;;;23.14;nan;94994.59;4947944;29;20031;-71
2021/08/19 04:34:56;;;;;;;3.78;1.55;;;;;;;23.15;nan;94993.34;4950064;29;20049;-71
2021/08/19 04:37:22;;;;;;;3.20;1.45;;;;;;;23.19;nan;94990.34;4947340;28;20832;-71
2021/08/19 04:39:47;;;;;;;2.50;1.63;;;;;;;23.30;nan;94993.69;4940895;28;20568;-70
2021/08/19 04:42:12;;;;;;;2.70;1.33;;;;;;;23.40;nan;95000.31;4942476;29;20110;-70
2021/08/19 04:44:38;;;;;;;2.80;1.73;;;;;;;23.49;nan;94991.81;4949612;29;20031;-70
2021/08/19 04:47:03;;;;;;;4.68;1.67;;;;;;;23.54;nan;94988.28;4948717;29;20031;-70
2021/08/19 04:49:29;;;;;;;4.95;2.05;;;;;;;23.56;nan;94991.25;4948863;29;20046;-70
2021/08/19 04:51:55;;;;;;;3.70;1.60;;;;;;;23.49;nan;94999.97;4949416;29;20023;-70
2021/08/19 04:54:20;;;;;;;4.82;2.28;;;;;;;23.23;nan;94990.78;4948483;29;20037;-71
2021/08/19 04:56:46;;;;;;;4.45;1.67;;;;;;;23.34;nan;94991.44;4932006;29;20042;-71
2021/08/19 04:59:11;;;;;;;4.10;2.13;;;;;;;23.38;nan;94991.91;4948013;29;20462;-71
2021/08/19 05:01:38;;;;;;;3.88;1.70;;;;;;;23.47;nan;94999.75;4948708;29;20478;-71
2021/08/19 05:04:04;;;;;;;5.35;1.48;;;;;;;23.53;nan;94997.72;4944357;29;20427;-71
2021/08/19 05:06:30;;;;;;;4.03;1.80;;;;;;;23.59;nan;95001.13;4929494;29;20040;-71
2021/08/19 05:08:55;;;;;;;5.80;1.52;;;;;;;23.63;nan;95002.31;4929293;29;20036;-70
2021/08/19 05:11:24;;;;;;;4.60;1.73;;;;;;;23.70;nan;95003.75;4929347;29;20063;-71
2021/08/19 05:13:50;;;;;;;4.30;1.58;;;;;;;23.80;nan;94999.47;4929715;29;20059;-71
2021/08/19 05:16:16;;;;;;;5.28;2.00;;;;;;;23.89;nan;95002.56;4929590;29;20036;-71
2021/08/19 05:18:43;;;;;;;3.55;1.67;;;;;;;23.95;nan;94995.06;4928821;29;20090;-70
2021/08/19 05:21:08;;;;;;;3.30;1.73;;;;;;;24.02;nan;95003.41;4929487;29;20406;-71
2021/08/19 05:23:34;;;;;;;3.17;1.30;;;;;;;24.10;nan;95007.03;4929019;29;20035;-71
2021/08/19 05:26:02;;;;;;;4.18;1.67;;;;;;;24.09;nan;95005.53;4929057;29;20332;-71
2021/08/19 05:28:28;;;;;;;3.47;1.60;;;;;;;24.13;nan;95011.47;4929278;29;20035;-72
2021/08/19 05:30:53;;;;;;;6.45;1.92;;;;;;;24.11;nan;95007.75;4929185;29;20028;-71
2021/08/19 05:33:19;;;;;;;2.90;1.67;;;;;;;24.21;nan;95017.81;4929077;29;20027;-71
2021/08/19 05:35:44;;;;;;;3.50;1.65;;;;;;;24.27;nan;95015.75;4927723;29;20487;-71
2021/08/19 05:38:10;;;;;;;3.72;1.88;;;;;;;24.40;nan;95013.13;4928991;29;20039;-70
2021/08/19 05:40:35;;;;;;;2.75;1.60;;;;;;;24.50;nan;95017.00;4928865;29;20067;-71
2021/08/19 05:43:01;;;;;;;2.92;1.45;;;;;;;24.55;nan;95013.44;4929076;29;20063;-70
2021/08/19 05:45:27;;;;;;;3.92;1.90;;;;;;;24.57;nan;95010.91;4928248;29;20083;-70
2021/08/19 05:47:52;;;;;;;5.72;2.03;;;;;;;24.53;nan;95007.78;4927192;29;20035;-70
2021/08/19 05:50:18;;;;;;;4.35;1.92;;;;;;;24.61;nan;95006.66;4928986;29;20030;-70
2021/08/19 05:52:44;;;;;;;3.25;1.70;;;;;;;24.59;nan;95013.91;4928473;29;20054;-71
2021/08/19 05:55:10;;;;;;;4.38;1.70;;;;;;;24.55;nan;95002.53;4928500;29;20430;-70
2021/08/19 05:57:35;;;;;;;6.53;2.00;;;;;;;24.61;nan;95005.91;4928951;29;20047;-69
2021/08/19 06:00:01;;;;;;;9.48;2.10;;;;;;;24.76;nan;95008.94;4928304;29;20483;-70
2021/08/19 06:02:26;;;;;;;4.18;1.50;;;;;;;24.76;nan;95011.66;4929635;29;20019;-70
2021/08/19 06:04:52;;;;;;;3.55;1.75;;;;;;;24.80;nan;95017.53;4948007;29;20055;-70
2021/08/19 06:07:17;;;;;;;2.65;1.60;;;;;;;24.78;nan;95003.69;4947401;29;20094;-69
2021/08/19 06:09:43;;;;;;;3.40;1.40;;;;;;;24.86;nan;95010.78;4945625;29;20090;-69
2021/08/19 06:12:08;;;;;;;3.58;1.77;;;;;;;24.94;nan;95006.91;4947914;29;20030;-70
2021/08/19 06:14:34;;;;;;;3.03;1.63;;;;;;;25.05;nan;95006.78;4947873;29;20182;-70
2021/08/19 06:16:59;;;;;;;4.00;2.10;;;;;;;25.13;nan;95007.63;4947213;29;20061;-70
2021/08/19 06:19:24;;;;;;;3.22;1.83;;;;;;;25.16;nan;95005.88;4947489;28;20594;-70
2021/08/19 06:21:50;;;;;;;4.05;2.17;;;;;;;25.20;nan;94996.09;4947248;28;20584;-70
2021/08/19 06:24:15;;;;;;;6.13;1.60;;;;;;;25.20;nan;95000.81;4947500;29;20552;-70
2021/08/19 06:26:41;;;;;;;3.78;1.63;;;;;;;25.17;nan;94997.16;4948379;29;20030;-70
2021/08/19 06:29:06;;;;;;;2.70;1.70;;;;;;;25.16;nan;95001.13;4948226;29;20027;-70
2021/08/19 06:31:32;;;;;;;2.85;1.60;;;;;;;25.18;nan;95008.81;4948905;29;20143;-70
2021/08/19 06:33:57;;;;;;;3.72;1.70;;;;;;;25.18;nan;94998.59;4948886;29;20032;-70
2021/08/19 06:36:22;;;;;;;3.65;1.88;;;;;;;25.18;nan;94993.13;4948888;29;20054;-70
2021/08/19 06:38:52;;;;;;;5.05;1.70;;;;;;;25.17;nan;94997.16;4947896;29;20027;-70
2021/08/19 06:41:19;;;;;;;4.47;1.95;;;;;;;25.14;nan;94986.50;4947477;29;20081;-70
2021/08/19 06:43:44;;;;;;;5.38;1.70;;;;;;;25.14;nan;94992.72;4947403;29;20568;-70
2021/08/19 06:46:10;;;;;;;3.13;1.88;;;;;;;25.12;nan;94989.75;4946432;29;20027;-70
2021/08/19 06:48:35;;;;;;;2.20;1.60;;;;;;;25.11;nan;94988.31;4946861;29;20521;-70
2021/08/19 06:51:00;;;;;;;5.22;1.92;;;;;;;25.12;nan;94978.81;4946835;29;20482;-69
2021/08/19 06:53:26;;;;;;;2.78;1.50;;;;;;;25.13;nan;94990.50;4946775;29;20027;-70
2021/08/19 06:55:51;;;;;;;3.42;1.70;;;;;;;25.10;nan;94975.88;4946839;29;20105;-70
2021/08/19 06:58:17;;;;;;;4.45;2.17;;;;;;;25.04;nan;94983.44;4947271;29;20034;-70
2021/08/19 07:00:42;;;;;;;5.38;1.77;;;;;;;25.12;nan;94978.81;4946605;29;20423;-70
2021/08/19 07:03:08;;;;;;;5.78;1.85;;;;;;;25.10;nan;94992.28;4946890;29;20047;-70
2021/08/19 07:05:33;;;;;;;5.70;1.80;;;;;;;25.14;nan;94984.53;4945960;29;20027;-70
2021/08/19 07:08:00;;;;;;;3.45;1.48;;;;;;;25.12;nan;94978.09;4946952;29;20051;-71
2021/08/19 07:10:25;;;;;;;3.58;1.65;;;;;;;25.06;nan;94980.91;4945657;29;20066;-70
2021/08/19 07:12:50;;;;;;;3.22;1.60;;;;;;;25.07;nan;94985.13;4947121;29;20035;-70
2021/08/19 07:15:16;;;;;;;3.55;1.75;;;;;;;25.11;nan;94982.84;4946983;29;20031;-71
2021/08/19 07:17:41;;;;;;;2.55;1.48;;;;;;;25.08;nan;94986.63;4947131;29;20035;-70
2021/08/19 07:20:07;;;;;;;4.05;1.67;;;;;;;25.12;nan;94972.63;4947064;29;20093;-70
2021/08/19 07:22:33;;;;;;;4.10;1.63;;;;;;;25.10;nan;94970.41;4947464;29;20031;-70
2021/08/19 07:24:58;;;;;;;3.17;1.40;;;;;;;25.13;nan;94980.31;4947023;29;20117;-70
2021/08/19 07:27:24;;;;;;;5.15;1.50;;;;;;;25.17;nan;94975.28;4946928;29;20038;-70
2021/08/19 07:29:49;;;;;;;3.00;1.55;;;;;;;25.18;nan;94976.00;4947987;28;20031;-70
2021/08/19 07:32:19;;;;;;;5.55;2.00;;;;;;;25.16;nan;94973.81;4950303;29;20122;-70
2021/08/19 07:34:45;;;;;;;3.38;1.83;;;;;;;25.20;nan;94978.94;4964664;28;20031;-71
2021/08/19 07:37:10;;;;;;;2.85;1.45;;;;;;;25.20;nan;94985.19;4950335;29;20035;-70
2021/08/19 07:39:36;;;;;;;4.38;1.80;;;;;;;25.22;nan;94977.19;4965275;28;20220;-70
2021/08/19 07:42:01;;;;;;;4.20;1.90;;;;;;;25.27;nan;94984.53;4950158;29;20467;-70
2021/08/19 07:44:26;;;;;;;4.72;1.90;;;;;;;25.24;nan;94974.66;4950339;29;21456;-70
2021/08/19 07:46:52;;;;;;;7.43;1.60;;;;;;;25.30;nan;94975.31;4964727;28;20023;-70
2021/08/19 07:49:20;;;;;;;3.65;1.48;;;;;;;25.30;nan;94972.56;4949950;29;20023;-70
2021/08/19 07:51:46;;;;;;;4.78;1.80;;;;;;;25.31;nan;94968.59;4948923;29;20035;-70
2021/08/19 07:54:11;;;;;;;4.30;1.70;;;;;;;25.30;nan;94980.78;4949930;29;20023;-70
2021/08/19 07:56:37;;;;;;;2.75;1.42;;;;;;;25.32;nan;94964.59;4964812;28;20142;-70
2021/08/19 07:59:02;;;;;;;4.32;1.80;;;;;;;25.34;nan;94979.19;4950229;29;20035;-70
2021/08/19 08:01:27;;;;;;;5.65;1.83;;;;;;;25.31;nan;94968.59;4949957;29;20043;-70
2021/08/19 08:03:53;;;;;;;3.33;1.67;;;;;;;25.38;nan;94967.94;4950177;29;20075;-70
2021/08/19 08:06:18;;;;;;;3.35;1.85;;;;;;;25.38;nan;94962.47;4951920;29;20035;-71
2021/08/19 08:08:44;;;;;;;3.72;1.63;;;;;;;25.40;nan;94959.97;4953164;28;20035;-70
2021/08/19 08:11:10;;;;;;;2.20;1.30;;;;;;;25.42;nan;94963.66;4950046;29;20530;-70
2021/08/19 08:13:35;;;;;;;3.28;1.70;;;;;;;25.42;nan;94957.44;4949890;29;20031;-71
2021/08/19 08:16:01;;;;;;;2.22;1.50;;;;;;;25.45;nan;94950.94;4949863;29;20445;-70
2021/08/19 08:18:26;;;;;;;3.17;1.70;;;;;;;25.44;nan;94946.72;4949628;29;20023;-70
2021/08/19 08:20:52;;;;;;;5.05;1.63;;;;;;;25.49;nan;94952.09;4964856;28;20035;-70
2021/08/19 08:23:19;;;;;;;3.13;1.60;;;;;;;25.51;nan;94943.38;4964310;28;20110;-70
2021/08/19 08:25:45;;;;;;;3.28;1.60;;;;;;;25.53;nan;94952.53;4949541;29;20054;-70
2021/08/19 08:28:14;;;;;;;3.65;1.77;;;;;;;25.55;nan;94949.28;4948021;29;20023;-70
2021/08/19 08:30:45;;;;;;;5.78;1.52;;;;;;;25.59;nan;94944.22;4948255;29;20090;-70
2021/08/19 08:33:12;;;;;;;4.32;1.90;;;;;;;25.61;nan;94958.09;4949206;29;20034;-70
2021/08/19 08:35:37;;;;;;;2.88;1.58;;;;;;;25.64;nan;94935.19;4948205;29;20542;-70
2021/08/19 08:38:11;;;;;;;5.45;1.65;;;;;;;25.65;nan;94931.19;4949460;29;20031;-71
2021/08/19 08:40:38;;;;;;;4.90;1.50;;;;;;;25.67;nan;94940.34;4949277;29;20667;-71
2021/08/19 08:43:04;;;;;;;4.78;1.90;;;;;;;25.70;nan;94933.84;4947319;29;21171;-70
2021/08/19 08:45:34;;;;;;;3.65;1.38;;;;;;;25.72;nan;94941.50;4949225;29;20030;-70
2021/08/19 08:48:01;;;;;;;4.90;1.50;;;;;;;25.69;nan;94937.09;4948012;29;20588;-70
2021/08/19 08:50:27;;;;;;;3.47;1.58;;;;;;;25.74;nan;94933.50;4963589;28;20126;-70
2021/08/19 08:52:52;;;;;;;4.35;1.45;;;;;;;25.79;nan;94931.41;4949204;29;20031;-70
2021/08/19 08:55:18;;;;;;;4.88;1.80;;;;;;;25.78;nan;94925.72;4947806;29;20031;-70
2021/08/19 08:57:44;;;;;;;2.92;1.52;;;;;;;25.82;nan;94924.88;4950025;28;20409;-70
2021/08/19 09:00:10;;;;;;;3.75;1.30;;;;;;;25.91;nan;94921.72;4947169;28;20082;-70
2021/08/19 09:02:36;;;;;;;3.20;1.70;;;;;;;25.92;nan;94923.19;4954810;28;20055;-70
2021/08/19 09:05:13;;;;;;;4.85;1.38;;;;;;;25.95;nan;94915.94;4939892;29;20030;-70
2021/08/19 09:07:39;;;;;;;3.28;1.48;;;;;;;25.98;nan;94921.09;4948879;29;20520;-70
2021/08/19 09:10:04;;;;;;;3.15;1.20;;;;;;;26.01;nan;94909.06;4949292;29;20049;-70
2021/08/19 09:12:30;;;;;;;3.30;1.15;;;;;;;26.07;nan;94911.69;4948770;29;20064;-71
2021/08/19 09:14:55;;;;;;;4.20;1.40;;;;;;;26.09;nan;94915.38;4948444;29;20039;-71
2021/08/19 09:17:51;;;;;;;4.22;1.30;;;;;;;26.20;nan;94904.19;4947379;29;20110;-70
2021/08/19 09:20:17;;;;;;;2.95;1.10;;;;;;;26.28;nan;94905.06;4933238;29;20031;-71
2021/08/19 09:23:04;;;;;;;3.67;1.35;;;;;;;26.41;nan;94902.25;4948100;29;20035;-71
2021/08/19 09:25:31;;;;;;;4.75;0.98;;;;;;;26.48;nan;94907.09;4948487;29;20034;-71
2021/08/19 09:28:21;;;;;;;2.25;1.23;;;;;;;26.60;nan;94908.31;4945899;29;20031;-71
2021/08/19 09:31:06;;;;;;;3.17;1.40;;;;;;;26.70;nan;94901.84;4948076;29;20039;-71
2021/08/19 09:33:33;;;;;;;3.17;1.13;;;;;;;26.79;nan;94893.16;4962529;28;20050;-71
2021/08/19 09:35:59;;;;;;;3.50;1.05;;;;;;;26.93;nan;94902.81;4963056;28;20057;-71
2021/08/19 09:38:27;;;;;;;1.75;1.15;;;;;;;27.07;nan;94891.25;4946422;29;20118;-71
2021/08/19 09:41:12;;;;;;;4.38;1.30;;;;;;;27.17;nan;94883.97;4947519;29;20023;-71
2021/08/19 09:43:51;;;;;;;2.40;1.10;;;;;;;27.27;nan;94882.25;4948637;29;20031;-71
2021/08/19 09:46:17;;;;;;;3.25;1.23;;;;;;;27.33;nan;94874.59;4947876;29;20038;-71
2021/08/19 09:48:43;;;;;;;1.80;1.20;;;;;;;27.45;nan;94882.00;4947160;29;20498;-72
2021/08/19 09:51:12;;;;;;;4.05;1.42;;;;;;;27.58;nan;94872.94;4947887;29;20142;-71
2021/08/19 09:53:41;;;;;;;1.85;1.15;;;;;;;27.68;nan;94868.44;4946340;28;20043;-71
2021/08/19 09:56:09;;;;;;;;;;;;;;;27.77;nan;94874.91;4948605;29;20477;-72
2021/08/19 09:58:34;;;;;;;2.92;1.23;;;;;;;27.83;nan;94859.00;4948247;29;19914;-71
2021/08/19 10:01:00;;;;;;;2.78;1.20;;;;;;;27.96;nan;94869.84;4930609;29;20529;-70
2021/08/19 10:03:25;;;;;;;2.63;1.00;;;;;;;28.06;nan;94862.56;4946864;29;20050;-69
2021/08/19 10:05:52;;;;;;;2.20;0.90;;;;;;;28.12;nan;94849.44;4930685;29;20027;-71
2021/08/19 10:08:17;;;;;;;3.63;1.00;;;;;;;28.24;nan;94845.09;4946244;29;20085;-71
2021/08/19 10:10:44;;;;;;;2.67;0.95;;;;;;;28.24;nan;94850.59;4948160;29;20473;-72
2021/08/19 10:13:11;;;;;;;4.03;1.40;;;;;;;28.28;nan;94845.44;4947943;29;20527;-78
2021/08/19 10:15:36;;;;;;;4.53;1.30;;;;;;;28.32;nan;94845.84;4946172;29;20054;-71
2021/08/19 10:18:02;;;;;;;2.50;1.23;;;;;;;28.36;nan;94840.72;4962713;28;20023;-71
2021/08/19 10:20:30;;;;;;;2.95;1.20;;;;;;;28.46;nan;94838.91;4946130;29;20454;-71
2021/08/19 10:22:56;;;;;;;4.00;1.33;;;;;;;28.40;nan;94841.09;4961962;28;20617;-76
2021/08/19 10:25:24;;;;;;;2.40;0.98;;;;;;;28.44;nan;94841.47;4962461;28;20034;-73
2021/08/19 10:28:10;;;;;;;2.15;1.30;;;;;;;28.46;nan;94844.38;4962512;28;20015;-72
2021/08/19 10:30:51;;;;;;;3.53;1.75;;;;;;;28.48;nan;94836.34;4932820;29;20039;-73
2021/08/19 10:33:38;;;;;;;2.42;1.20;;;;;;;28.61;nan;94827.94;4931960;29;20368;-72
2021/08/19 10:36:09;;;;;;;2.17;1.23;;;;;;;28.60;nan;94826.47;4945176;29;20506;-72
2021/08/19 10:38:35;;;;;;;2.72;1.33;;;;;;;28.62;nan;94824.63;4948067;29;20067;-72
2021/08/19 10:41:00;;;;;;;2.65;1.40;;;;;;;28.57;nan;94822.09;4947270;29;20064;-72
2021/08/19 10:43:32;;;;;;;2.08;1.33;;;;;;;28.57;nan;94822.81;4944848;29;20060;-72
2021/08/19 10:46:05;;;;;;;2.50;1.30;;;;;;;28.63;nan;94819.88;4947105;29;20035;-72
2021/08/19 10:48:41;;;;;;;3.08;1.20;;;;;;;28.57;nan;94827.56;4947577;29;20090;-72
2021/08/19 10:51:39;;;;;;;3.55;1.20;;;;;;;28.54;nan;94817.69;4946162;29;20502;-71
2021/08/19 10:54:53;;;;;;;3.40;1.67;;;;;;;28.54;nan;94817.69;4927406;29;20502;-72
2021/08/19 10:57:24;;;;;;;2.60;1.35;;;;;;;28.46;nan;94811.41;4892946;29;20043;-71
2021/08/19 10:59:58;;;;;;;4.47;1.17;;;;;;;28.42;nan;94822.06;4947333;29;20059;-72
2021/08/19 11:02:39;;;;;;;2.45;1.20;;;;;;;28.39;nan;94817.66;4929726;29;20633;-72
2021/08/19 11:05:05;;;;;;;3.45;1.30;;;;;;;28.37;nan;94811.97;4945141;29;20503;-71
2021/08/19 11:07:53;;;;;;;2.85;1.40;;;;;;;28.32;nan;94812.88;4947663;29;20039;-71
2021/08/19 11:10:22;;;;;;;2.97;1.40;;;;;;;28.32;nan;94821.84;4946927;29;20032;-72
2021/08/19 11:12:47;;;;;;;2.30;1.30;;;;;;;28.30;nan;94804.44;4945815;29;20034;-72
2021/08/19 11:15:13;;;;;;;2.95;1.27;;;;;;;28.24;nan;94809.38;4929617;29;20494;-71
2021/08/19 11:17:38;;;;;;;3.40;1.40;;;;;;;28.23;nan;94807.19;4946072;29;20033;-72
2021/08/19 11:20:38;;;;;;;4.07;1.58;;;;;;;28.19;nan;94798.56;4947075;29;20043;-72
2021/08/19 11:23:08;;;;;;;2.30;1.33;;;;;;;28.18;nan;94808.81;4945830;29;20062;-72
2021/08/19 11:25:38;;;;;;;2.47;1.13;;;;;;;28.14;nan;94791.97;4947056;29;20051;-72
2021/08/19 11:28:07;;;;;;;4.38;1.42;;;;;;;28.12;nan;94788.31;4947242;29;20414;-72
2021/08/19 11:30:33;;;;;;;2.47;1.33;;;;;;;28.10;nan;94797.09;4946850;29;20023;-72
2021/08/19 11:33:24;;;;;;;3.15;1.20;;;;;;;28.03;nan;94797.78;4947227;29;20166;-72
2021/08/19 11:35:52;;;;;;;3.42;1.50;;;;;;;28.01;nan;94794.09;4947298;29;20473;-72
2021/08/19 11:38:22;;;;;;;5.30;1.40;;;;;;;27.97;nan;94794.47;4945896;29;20037;-71
2021/08/19 11:40:49;;;;;;;2.65;1.40;;;;;;;27.99;nan;94791.88;4946352;28;20035;-71
2021/08/19 11:43:18;;;;;;;5.50;1.40;;;;;;;27.96;nan;94776.50;4946116;29;20512;-72
2021/08/19 11:45:44;;;;;;;2.47;1.20;;;;;;;27.97;nan;94777.97;4946991;29;20034;-71
2021/08/19 11:48:11;;;;;;;2.70;1.50;;;;;;;27.89;nan;94782.72;4914988;28;20027;-71
2021/08/19 11:50:37;;;;;;;3.25;1.27;;;;;;;27.89;nan;94782.72;4948998;28;20110;-72